createdAt,value
2018-05-26T00:00:44.883Z,13.12
2018-05-26T00:02:10.811Z,13.11
2018-05-26T00:03:38.294Z,13.09
2018-05-26T00:05:06.138Z,13.06
2018-05-26T00:06:33.421Z,13.04
2018-05-26T00:07:59.678Z,12.98
2018-05-26T00:09:26.583Z,12.95
2018-05-26T00:10:54.970Z,12.90
2018-05-26T00:12:21.270Z,12.87
2018-05-26T00:13:49.565Z,12.86
2018-05-26T00:15:15.231Z,12.83
2018-05-26T00:16:42.859Z,12.82
2018-05-26T00:18:09.833Z,12.80
2018-05-26T00:19:36.003Z,12.77
2018-05-26T00:21:04.413Z,12.78
2018-05-26T00:22:31.765Z,12.79
2018-05-26T00:23:58.185Z,12.77
2018-05-26T00:25:26.556Z,12.74
2018-05-26T00:26:52.501Z,12.73
2018-05-26T00:28:20.795Z,12.73
2018-05-26T00:29:48.258Z,12.73
2018-05-26T00:31:14.627Z,12.71
2018-05-26T00:32:41.522Z,12.71
2018-05-26T00:34:08.430Z,12.73
2018-05-26T00:35:36.734Z,12.76
2018-05-26T00:37:03.145Z,12.78
2018-05-26T00:38:31.137Z,12.78
2018-05-26T00:39:57.723Z,12.81
2018-05-26T00:41:25.056Z,12.85
2018-05-26T00:42:53.288Z,12.91
2018-05-26T00:44:19.576Z,12.96
2018-05-26T00:45:46.296Z,12.99
2018-05-26T00:47:14.750Z,13.02
2018-05-26T00:48:40.825Z,13.03
2018-05-26T00:50:08.103Z,13.06
2018-05-26T00:51:36.285Z,13.08
2018-05-26T00:53:02.552Z,13.09
2018-05-26T00:54:30.856Z,13.08
2018-05-26T00:55:58.161Z,13.05
2018-05-26T00:57:25.055Z,12.99
2018-05-26T00:58:52.300Z,12.94
2018-05-26T01:00:18.460Z,12.93
2018-05-26T01:01:45.649Z,12.94
2018-05-26T01:03:13.556Z,12.91
2018-05-26T01:04:40.257Z,12.86
2018-05-26T01:06:06.451Z,12.79
2018-05-26T01:07:33.810Z,12.74
2018-05-26T01:09:01.256Z,12.71
2018-05-26T01:10:28.512Z,12.67
2018-05-26T01:11:55.695Z,12.64
2018-05-26T01:13:24.084Z,12.63
2018-05-26T01:14:51.542Z,12.64
2018-05-26T01:16:18.794Z,12.65
2018-05-26T01:17:46.308Z,12.65
2018-05-26T01:19:13.716Z,12.69
2018-05-26T01:20:39.538Z,12.71
2018-05-26T01:22:06.286Z,12.72
2018-05-26T01:23:34.779Z,12.71
2018-05-26T01:25:01.050Z,12.71
2018-05-26T01:26:28.334Z,12.69
2018-05-26T01:27:56.276Z,12.68
2018-05-26T01:29:22.619Z,12.69
2018-05-26T01:30:49.984Z,12.72
2018-05-26T01:32:18.428Z,12.74
2018-05-26T01:33:44.691Z,12.76
2018-05-26T01:35:11.979Z,12.78
2018-05-26T01:36:39.433Z,12.80
2018-05-26T01:38:06.727Z,12.82
2018-05-26T01:39:35.183Z,12.84
2018-05-26T01:41:00.942Z,12.83
2018-05-26T01:42:29.289Z,12.77
2018-05-26T01:43:55.530Z,12.70
2018-05-26T01:45:22.623Z,12.63
2018-05-26T01:46:50.038Z,12.58
2018-05-26T01:48:18.530Z,12.53
2018-05-26T01:49:44.618Z,12.47
2018-05-26T01:51:13.153Z,12.43
2018-05-26T01:52:39.710Z,12.39
2018-05-26T01:54:06.516Z,12.35
2018-05-26T01:55:32.184Z,12.32
2018-05-26T01:57:00.548Z,12.31
2018-05-26T01:58:30.428Z,12.31
2018-05-26T01:59:54.890Z,12.31
2018-05-26T02:01:20.588Z,12.31
2018-05-26T02:02:47.831Z,12.34
2018-05-26T02:04:16.138Z,12.39
2018-05-26T02:05:43.555Z,12.42
2018-05-26T02:07:09.752Z,12.45
2018-05-26T02:08:38.178Z,12.49
2018-05-26T02:10:04.347Z,12.52
2018-05-26T02:11:31.417Z,12.50
2018-05-26T02:12:59.741Z,12.50
2018-05-26T02:14:26.970Z,12.52
2018-05-26T02:15:53.200Z,12.52
2018-05-26T02:17:21.697Z,12.53
2018-05-26T02:18:48.016Z,12.53
2018-05-26T02:20:16.414Z,12.53
2018-05-26T02:21:43.243Z,12.52
2018-05-26T02:23:10.548Z,12.50
2018-05-26T02:24:37.903Z,12.47
2018-05-26T02:26:06.833Z,12.44
2018-05-26T02:27:32.151Z,12.42
2018-05-26T02:28:58.216Z,12.43
2018-05-26T02:30:25.396Z,12.46
2018-05-26T02:31:52.320Z,12.48
2018-05-26T02:33:19.723Z,12.48
2018-05-26T02:34:47.058Z,12.50
2018-05-26T02:36:15.481Z,12.49
2018-05-26T02:37:42.980Z,12.48
2018-05-26T02:39:10.196Z,12.48
2018-05-26T02:40:35.914Z,12.48
2018-05-26T02:42:03.115Z,12.47
2018-05-26T02:43:31.576Z,12.46
2018-05-26T02:44:58.955Z,12.45
2018-05-26T02:46:25.174Z,12.43
2018-05-26T02:47:52.439Z,12.40
2018-05-26T02:49:20.421Z,12.38
2018-05-26T02:50:47.750Z,12.35
2018-05-26T02:52:14.548Z,12.33
2018-05-26T02:53:40.380Z,12.32
2018-05-26T02:55:07.652Z,12.31
2018-05-26T02:56:36.115Z,12.31
2018-05-26T02:58:02.436Z,12.31
2018-05-26T02:59:30.628Z,12.32
2018-05-26T03:00:56.908Z,12.32
2018-05-26T03:02:24.181Z,12.33
2018-05-26T03:03:52.821Z,12.32
2018-05-26T03:05:18.349Z,12.31
2018-05-26T03:06:45.771Z,12.31
2018-05-26T03:08:12.741Z,12.31
2018-05-26T03:09:40.155Z,12.30
2018-05-26T03:11:08.522Z,12.29
2018-05-26T03:12:35.775Z,12.24
2018-05-26T03:14:03.005Z,12.24
2018-05-26T03:15:29.796Z,12.22
2018-05-26T03:16:55.516Z,12.20
2018-05-26T03:18:23.523Z,12.20
2018-05-26T03:19:49.207Z,12.22
2018-05-26T03:21:16.670Z,12.27
2018-05-26T03:22:43.399Z,12.33
2018-05-26T03:24:10.315Z,12.37
2018-05-26T03:25:38.333Z,12.40
2018-05-26T03:27:05.490Z,12.44
2018-05-26T03:28:31.611Z,12.44
2018-05-26T03:29:58.891Z,12.42
2018-05-26T03:31:26.351Z,12.40
2018-05-26T03:32:53.592Z,12.40
2018-05-26T03:34:20.993Z,12.39
2018-05-26T03:35:47.838Z,12.37
2018-05-26T03:37:16.233Z,12.36
2018-05-26T03:38:43.401Z,12.37
2018-05-26T03:40:09.001Z,12.38
2018-05-26T03:41:35.797Z,12.39
2018-05-26T03:43:02.994Z,12.40
2018-05-26T03:44:30.040Z,12.46
2018-05-26T03:45:58.116Z,12.53
2018-05-26T03:47:23.929Z,12.60
2018-05-26T03:48:52.335Z,12.67
2018-05-26T03:50:18.101Z,12.71
2018-05-26T03:51:45.520Z,12.74
2018-05-26T03:53:14.000Z,12.78
2018-05-26T03:54:41.007Z,12.82
2018-05-26T03:56:08.122Z,12.83
2018-05-26T03:57:33.850Z,12.87
2018-05-26T03:59:01.284Z,12.89
2018-05-26T04:00:29.836Z,12.92
2018-05-26T04:01:56.992Z,12.94
2018-05-26T04:03:23.357Z,12.97
2018-05-26T04:04:50.875Z,12.98
2018-05-26T04:06:18.329Z,12.99
2018-05-26T04:07:45.101Z,13.01
2018-05-26T04:09:12.194Z,13.03
2018-05-26T04:10:40.710Z,13.05
2018-05-26T04:12:07.001Z,13.07
2018-05-26T04:13:34.067Z,13.11
2018-05-26T04:15:01.480Z,13.13
2018-05-26T04:16:28.765Z,13.15
2018-05-26T04:17:56.094Z,13.17
2018-05-26T04:19:24.360Z,13.20
2018-05-26T04:20:50.737Z,13.21
2018-05-26T04:22:18.096Z,13.22
2018-05-26T04:23:45.496Z,13.23
2018-05-26T04:25:13.066Z,13.22
2018-05-26T04:26:40.287Z,13.25
2018-05-26T04:28:07.812Z,13.28
2018-05-26T04:29:35.264Z,13.30
2018-05-26T04:31:02.604Z,13.30
2018-05-26T04:32:29.760Z,13.34
2018-05-26T04:33:57.176Z,13.37
2018-05-26T04:35:25.696Z,13.39
2018-05-26T04:36:52.868Z,13.41
2018-05-26T04:38:19.160Z,13.44
2018-05-26T04:39:46.080Z,13.47
2018-05-26T04:41:14.562Z,13.49
2018-05-26T04:42:42.074Z,13.49
2018-05-26T04:44:08.433Z,13.50
2018-05-26T04:45:35.948Z,13.51
2018-05-26T04:47:04.332Z,13.53
2018-05-26T04:48:31.743Z,13.56
2018-05-26T04:49:58.995Z,13.60
2018-05-26T04:51:25.193Z,13.62
2018-05-26T04:52:53.334Z,13.67
2018-05-26T04:54:20.743Z,13.72
2018-05-26T04:55:46.554Z,13.76
2018-05-26T04:57:14.779Z,13.81
2018-05-26T04:58:40.887Z,13.85
2018-05-26T05:00:08.290Z,13.88
2018-05-26T05:01:36.735Z,13.92
2018-05-26T05:03:03.122Z,13.99
2018-05-26T05:04:30.689Z,14.05
2018-05-26T05:05:57.629Z,14.10
2018-05-26T05:07:24.918Z,14.14
2018-05-26T05:08:52.287Z,14.20
2018-05-26T05:10:19.757Z,14.26
2018-05-26T05:11:47.100Z,14.32
2018-05-26T05:13:15.627Z,14.37
2018-05-26T05:14:41.603Z,14.43
2018-05-26T05:16:09.074Z,14.48
2018-05-26T05:17:36.560Z,14.53
2018-05-26T05:19:04.946Z,14.60
2018-05-26T05:20:31.052Z,14.66
2018-05-26T05:21:58.196Z,14.74
2018-05-26T05:23:25.483Z,14.82
2018-05-26T05:24:52.652Z,14.91
2018-05-26T05:26:19.951Z,14.95
2018-05-26T05:27:47.834Z,15.02
2018-05-26T05:29:13.997Z,15.09
2018-05-26T05:30:41.395Z,15.16
2018-05-26T05:32:09.989Z,15.23
2018-05-26T05:33:37.071Z,15.27
2018-05-26T05:35:03.952Z,15.33
2018-05-26T05:36:31.060Z,15.42
2018-05-26T05:37:57.476Z,15.47
2018-05-26T05:39:24.710Z,15.56
2018-05-26T05:40:53.258Z,15.67
2018-05-26T05:42:19.428Z,15.76
2018-05-26T05:43:47.697Z,15.88
2018-05-26T05:45:15.194Z,16.02
2018-05-26T05:46:41.340Z,16.17
2018-05-26T05:48:08.788Z,16.33
2018-05-26T05:49:36.177Z,16.43
2018-05-26T05:51:03.749Z,16.52
2018-05-26T05:52:31.295Z,16.64
2018-05-26T05:53:58.610Z,16.78
2018-05-26T05:55:27.060Z,16.93
2018-05-26T05:56:53.531Z,17.07
2018-05-26T05:58:20.806Z,17.19
2018-05-26T05:59:48.335Z,17.29
2018-05-26T06:01:16.722Z,17.38
2018-05-26T06:02:43.110Z,17.46
2018-05-26T06:04:11.749Z,17.56
2018-05-26T06:05:38.141Z,17.68
2018-05-26T06:07:06.591Z,17.83
2018-05-26T06:08:34.163Z,18.00
2018-05-26T06:10:01.629Z,18.16
2018-05-26T06:11:29.147Z,18.35
2018-05-26T06:12:55.428Z,18.57
2018-05-26T06:14:23.891Z,18.85
2018-05-26T06:15:51.346Z,18.94
2018-05-26T06:17:17.869Z,19.08
2018-05-26T06:18:45.395Z,19.27
2018-05-26T06:20:13.986Z,19.42
2018-05-26T06:21:40.393Z,19.54
2018-05-26T06:23:08.048Z,19.58
2018-05-26T06:24:35.451Z,19.65
2018-05-26T06:26:03.988Z,19.67
2018-05-26T06:27:31.610Z,19.67
2018-05-26T06:28:58.103Z,19.65
2018-05-26T06:30:25.559Z,19.68
2018-05-26T06:31:52.813Z,19.62
2018-05-26T06:33:20.361Z,19.57
2018-05-26T06:34:47.942Z,19.67
2018-05-26T06:36:15.472Z,19.79
2018-05-26T06:37:42.903Z,19.94
2018-05-26T06:39:10.535Z,20.14
2018-05-26T06:40:37.807Z,20.27
2018-05-26T06:42:05.369Z,20.43
2018-05-26T06:43:32.911Z,20.54
2018-05-26T06:45:01.561Z,20.59
2018-05-26T06:46:29.005Z,20.59
2018-05-26T06:47:56.488Z,20.53
2018-05-26T06:49:23.975Z,20.56
2018-05-26T06:50:50.543Z,20.46
2018-05-26T06:52:18.104Z,20.35
2018-05-26T06:53:46.137Z,20.29
2018-05-26T06:55:12.850Z,20.24
2018-05-26T06:56:40.538Z,20.21
2018-05-26T06:58:08.918Z,20.15
2018-05-26T06:59:35.275Z,20.15
2018-05-26T07:01:03.847Z,20.13
2018-05-26T07:02:31.251Z,20.04
2018-05-26T07:03:57.697Z,20.07
2018-05-26T07:05:26.339Z,20.14
2018-05-26T07:06:53.519Z,20.13
2018-05-26T07:08:20.155Z,20.26
2018-05-26T07:09:48.507Z,20.30
2018-05-26T07:11:15.717Z,20.27
2018-05-26T07:12:43.208Z,20.39
2018-05-26T07:14:09.470Z,20.45
2018-05-26T07:15:36.986Z,20.49
2018-05-26T07:17:04.471Z,20.56
2018-05-26T07:18:32.909Z,20.62
2018-05-26T07:19:58.844Z,20.64
2018-05-26T07:21:27.492Z,20.62
2018-05-26T07:22:53.796Z,20.60
2018-05-26T07:24:22.407Z,20.58
2018-05-26T07:25:48.789Z,20.63
2018-05-26T07:27:16.305Z,20.57
2018-05-26T07:28:43.867Z,20.62
2018-05-26T07:30:11.346Z,20.69
2018-05-26T07:31:38.949Z,20.76
2018-05-26T07:33:06.337Z,20.77
2018-05-26T07:34:33.689Z,20.80
2018-05-26T07:36:01.226Z,20.84
2018-05-26T07:37:29.803Z,20.83
2018-05-26T07:38:56.143Z,20.82
2018-05-26T07:40:24.677Z,20.87
2018-05-26T07:41:51.103Z,20.86
2018-05-26T07:43:18.633Z,20.84
2018-05-26T07:44:47.157Z,20.81
2018-05-26T07:46:13.556Z,20.76
2018-05-26T07:47:40.700Z,20.75
2018-05-26T07:49:08.271Z,20.77
2018-05-26T07:50:35.605Z,20.80
2018-05-26T07:52:03.045Z,20.81
2018-05-26T07:53:31.650Z,20.81
2018-05-26T07:54:58.882Z,20.86
2018-05-26T07:56:25.279Z,20.93
2018-05-26T07:57:52.745Z,20.98
2018-05-26T07:59:23.263Z,21.01
2018-05-26T08:00:47.745Z,21.02
2018-05-26T08:02:14.773Z,21.05
2018-05-26T08:03:43.364Z,21.12
2018-05-26T08:05:09.811Z,21.13
2018-05-26T08:06:37.444Z,21.16
2018-05-26T08:08:05.979Z,21.20
2018-05-26T08:09:32.487Z,21.22
2018-05-26T08:10:59.708Z,21.24
2018-05-26T08:12:27.265Z,21.24
2018-05-26T08:13:54.624Z,21.27
2018-05-26T08:15:22.983Z,21.31
2018-05-26T08:16:49.350Z,21.33
2018-05-26T08:18:16.803Z,21.35
2018-05-26T08:19:44.343Z,21.29
2018-05-26T08:21:11.838Z,21.22
2018-05-26T08:22:38.978Z,21.20
2018-05-26T08:24:07.509Z,21.19
2018-05-26T08:25:34.036Z,21.26
2018-05-26T08:27:01.488Z,21.33
2018-05-26T08:28:28.824Z,21.40
2018-05-26T08:29:56.435Z,21.47
2018-05-26T08:31:24.878Z,21.50
2018-05-26T08:32:52.203Z,21.50
2018-05-26T08:34:18.663Z,21.53
2018-05-26T08:35:46.496Z,21.59
2018-05-26T08:37:13.948Z,21.65
2018-05-26T08:38:41.477Z,21.69
2018-05-26T08:40:09.021Z,21.71
2018-05-26T08:41:35.921Z,21.75
2018-05-26T08:43:03.474Z,21.72
2018-05-26T08:44:30.689Z,21.75
2018-05-26T08:45:58.159Z,21.78
2018-05-26T08:47:26.329Z,21.86
2018-05-26T08:48:53.739Z,21.93
2018-05-26T08:50:21.272Z,22.04
2018-05-26T08:51:48.770Z,22.07
2018-05-26T08:53:16.338Z,21.95
2018-05-26T08:54:42.791Z,21.92
2018-05-26T08:56:10.306Z,21.94
2018-05-26T08:57:38.405Z,21.87
2018-05-26T08:59:05.832Z,21.87
2018-05-26T09:00:33.188Z,21.92
2018-05-26T09:02:00.708Z,21.98
2018-05-26T09:03:27.159Z,22.02
2018-05-26T09:04:54.716Z,22.07
2018-05-26T09:06:23.174Z,22.15
2018-05-26T09:07:49.490Z,22.25
2018-05-26T09:09:18.197Z,22.37
2018-05-26T09:10:44.654Z,22.56
2018-05-26T09:12:11.563Z,22.59
2018-05-26T09:13:39.191Z,22.60
2018-05-26T09:15:07.611Z,22.67
2018-05-26T09:16:33.925Z,22.69
2018-05-26T09:18:01.499Z,22.70
2018-05-26T09:19:28.947Z,22.68
2018-05-26T09:20:56.533Z,22.69
2018-05-26T09:22:25.028Z,22.63
2018-05-26T09:23:52.203Z,22.63
2018-05-26T09:25:19.843Z,22.57
2018-05-26T09:26:46.271Z,22.54
2018-05-26T09:28:14.984Z,22.47
2018-05-26T09:29:41.389Z,22.48
2018-05-26T09:31:08.861Z,22.50
2018-05-26T09:32:36.464Z,22.50
2018-05-26T09:34:03.980Z,22.55
2018-05-26T09:35:31.440Z,22.64
2018-05-26T09:36:59.036Z,22.70
2018-05-26T09:38:26.474Z,22.79
2018-05-26T09:39:53.945Z,22.77
2018-05-26T09:41:21.298Z,22.65
2018-05-26T09:42:48.819Z,22.60
2018-05-26T09:44:17.487Z,22.61
2018-05-26T09:45:44.055Z,22.71
2018-05-26T09:47:11.455Z,22.83
2018-05-26T09:48:39.165Z,22.91
2018-05-26T09:50:06.666Z,22.99
2018-05-26T09:51:34.970Z,23.05
2018-05-26T09:53:02.343Z,23.08
2018-05-26T09:54:28.945Z,23.10
2018-05-26T09:55:56.459Z,23.10
2018-05-26T09:57:23.498Z,23.10
2018-05-26T09:58:50.866Z,23.14
2018-05-26T10:00:18.213Z,23.17
2018-05-26T10:01:45.628Z,23.20
2018-05-26T10:03:13.271Z,23.32
2018-05-26T10:04:41.934Z,23.48
2018-05-26T10:06:08.360Z,23.56
2018-05-26T10:07:35.984Z,23.62
2018-05-26T10:09:03.630Z,23.64
2018-05-26T10:10:31.193Z,23.60
2018-05-26T10:11:58.670Z,23.55
2018-05-26T10:13:26.137Z,23.51
2018-05-26T10:14:53.650Z,23.44
2018-05-26T10:16:21.277Z,23.35
2018-05-26T10:17:48.868Z,23.28
2018-05-26T10:19:17.357Z,23.20
2018-05-26T10:20:44.501Z,23.14
2018-05-26T10:22:10.746Z,23.09
2018-05-26T10:23:38.975Z,23.06
2018-05-26T10:25:05.408Z,23.00
2018-05-26T10:26:32.823Z,22.96
2018-05-26T10:28:00.355Z,22.92
2018-05-26T10:29:28.025Z,22.88
2018-05-26T10:30:55.386Z,22.90
2018-05-26T10:32:22.698Z,22.99
2018-05-26T10:33:51.112Z,23.14
2018-05-26T10:35:16.991Z,23.28
2018-05-26T10:36:45.594Z,23.42
2018-05-26T10:38:12.094Z,23.54
2018-05-26T10:39:39.560Z,23.65
2018-05-26T10:41:07.287Z,23.72
2018-05-26T10:42:34.843Z,23.75
2018-05-26T10:44:01.895Z,23.75
2018-05-26T10:45:29.568Z,23.75
2018-05-26T10:46:57.099Z,23.79
2018-05-26T10:48:18.387Z,23.70
2018-05-26T10:49:51.318Z,23.61
2018-05-26T10:51:18.744Z,23.54
2018-05-26T10:52:46.213Z,23.53
2018-05-26T10:54:14.793Z,23.65
2018-05-26T10:55:41.493Z,23.76
2018-05-26T10:57:11.932Z,23.77
2018-05-26T10:58:37.548Z,23.77
2018-05-26T11:00:04.397Z,23.88
2018-05-26T11:01:31.834Z,23.93
2018-05-26T11:02:58.465Z,24.08
2018-05-26T11:04:26.107Z,24.31
2018-05-26T11:05:53.604Z,24.63
2018-05-26T11:07:21.195Z,24.83
2018-05-26T11:08:49.749Z,24.93
2018-05-26T11:10:16.481Z,24.97
2018-05-26T11:11:45.113Z,25.18
2018-05-26T11:13:12.440Z,25.39
2018-05-26T11:14:39.283Z,25.53
2018-05-26T11:16:06.928Z,25.70
2018-05-26T11:17:34.118Z,25.81
2018-05-26T11:19:02.940Z,26.01
2018-05-26T11:20:29.476Z,26.09
2018-05-26T11:21:58.112Z,25.81
2018-05-26T11:23:25.745Z,25.67
2018-05-26T11:24:51.902Z,25.59
2018-05-26T11:26:20.421Z,25.75
2018-05-26T11:27:47.995Z,25.92
2018-05-26T11:29:15.656Z,25.99
2018-05-26T11:30:42.350Z,26.13
2018-05-26T11:32:09.927Z,26.27
2018-05-26T11:33:38.168Z,26.35
2018-05-26T11:35:04.821Z,26.46
2018-05-26T11:36:32.467Z,26.42
2018-05-26T11:38:00.053Z,26.50
2018-05-26T11:39:27.656Z,26.62
2018-05-26T11:40:56.259Z,26.84
2018-05-26T11:42:22.594Z,27.00
2018-05-26T11:43:49.769Z,27.15
2018-05-26T11:45:17.087Z,27.18
2018-05-26T11:46:44.509Z,26.96
2018-05-26T11:48:11.904Z,26.73
2018-05-26T11:49:39.507Z,26.74
2018-05-26T11:51:07.194Z,26.85
2018-05-26T11:52:34.636Z,26.87
2018-05-26T11:54:02.341Z,26.83
2018-05-26T11:55:30.879Z,26.80
2018-05-26T11:56:58.444Z,26.77
2018-05-26T11:58:24.743Z,26.93
2018-05-26T11:59:53.273Z,27.05
2018-05-26T12:01:19.890Z,27.10
2018-05-26T12:02:48.606Z,27.09
2018-05-26T12:04:15.160Z,26.98
2018-05-26T12:05:43.441Z,26.92
2018-05-26T12:07:10.213Z,27.01
2018-05-26T12:08:37.769Z,27.13
2018-05-26T12:10:05.641Z,27.23
2018-05-26T12:11:31.736Z,27.34
2018-05-26T12:12:59.901Z,27.26
2018-05-26T12:14:26.566Z,27.30
2018-05-26T12:15:54.937Z,27.31
2018-05-26T12:17:21.630Z,27.38
2018-05-26T12:18:49.196Z,27.33
2018-05-26T12:20:16.879Z,27.03
2018-05-26T12:21:44.555Z,26.78
2018-05-26T12:23:12.719Z,26.47
2018-05-26T12:24:39.230Z,26.39
2018-05-26T12:26:06.785Z,26.34
2018-05-26T12:27:34.472Z,26.46
2018-05-26T12:29:02.101Z,26.60
2018-05-26T12:30:29.335Z,26.77
2018-05-26T12:31:57.029Z,27.00
2018-05-26T12:33:25.604Z,27.15
2018-05-26T12:34:51.937Z,27.10
2018-05-26T12:36:19.727Z,26.92
2018-05-26T12:37:47.420Z,26.61
2018-05-26T12:39:15.888Z,26.36
2018-05-26T12:40:42.503Z,26.06
2018-05-26T12:42:10.088Z,25.77
2018-05-26T12:43:38.677Z,25.57
2018-05-26T12:45:05.268Z,25.42
2018-05-26T12:46:33.873Z,25.40
2018-05-26T12:48:00.449Z,25.40
2018-05-26T12:49:28.263Z,25.46
2018-05-26T12:50:55.868Z,25.56
2018-05-26T12:52:23.501Z,25.71
2018-05-26T12:53:52.099Z,25.85
2018-05-26T12:55:19.475Z,26.02
2018-05-26T12:56:46.062Z,26.16
2018-05-26T12:58:13.570Z,26.15
2018-05-26T12:59:41.211Z,25.92
2018-05-26T13:01:09.832Z,25.74
2018-05-26T13:02:36.441Z,25.57
2018-05-26T13:04:04.113Z,25.53
2018-05-26T13:05:31.828Z,25.54
2018-05-26T13:06:59.364Z,25.53
2018-05-26T13:08:28.065Z,25.45
2018-05-26T13:09:55.748Z,25.38
2018-05-26T13:11:21.935Z,25.31
2018-05-26T13:12:50.661Z,25.27
2018-05-26T13:14:17.267Z,25.29
2018-05-26T13:15:45.993Z,25.35
2018-05-26T13:17:12.577Z,25.38
2018-05-26T13:18:40.120Z,25.42
2018-05-26T13:20:07.812Z,25.48
2018-05-26T13:21:35.433Z,25.53
2018-05-26T13:23:02.936Z,25.59
2018-05-26T13:24:30.650Z,25.66
2018-05-26T13:25:58.201Z,25.67
2018-05-26T13:27:26.783Z,25.60
2018-05-26T13:28:53.152Z,25.58
2018-05-26T13:30:20.963Z,25.56
2018-05-26T13:31:48.615Z,25.48
2018-05-26T13:33:17.186Z,25.42
2018-05-26T13:34:44.732Z,25.40
2018-05-26T13:36:11.426Z,25.40
2018-05-26T13:37:39.979Z,25.40
2018-05-26T13:39:07.592Z,25.37
2018-05-26T13:40:34.246Z,25.25
2018-05-26T13:42:01.356Z,25.13
2018-05-26T13:43:29.054Z,25.06
2018-05-26T13:44:56.223Z,24.96
2018-05-26T13:46:23.840Z,24.91
2018-05-26T13:47:51.783Z,24.89
2018-05-26T13:49:19.329Z,24.87
2018-05-26T13:50:46.898Z,24.92
2018-05-26T13:52:13.476Z,24.93
2018-05-26T13:53:41.053Z,24.96
2018-05-26T13:55:09.778Z,25.01
2018-05-26T13:56:37.209Z,25.06
2018-05-26T13:58:03.684Z,25.01
2018-05-26T13:59:31.314Z,24.98
2018-05-26T14:00:58.921Z,24.92
2018-05-26T14:02:26.465Z,24.90
2018-05-26T14:03:53.981Z,24.87
2018-05-26T14:05:22.266Z,24.88
2018-05-26T14:06:48.681Z,24.79
2018-05-26T14:08:15.507Z,24.78
2018-05-26T14:09:43.047Z,24.78
2018-05-26T14:11:10.665Z,24.75
2018-05-26T14:12:39.145Z,24.74
2018-05-26T14:14:06.821Z,24.70
2018-05-26T14:15:34.502Z,24.67
2018-05-26T14:17:01.973Z,24.55
2018-05-26T14:18:29.565Z,24.46
2018-05-26T14:19:57.164Z,24.31
2018-05-26T14:21:24.796Z,24.18
2018-05-26T14:22:52.090Z,24.03
2018-05-26T14:24:19.442Z,23.95
2018-05-26T14:25:46.556Z,23.89
2018-05-26T14:27:13.135Z,23.83
2018-05-26T14:28:41.575Z,23.74
2018-05-26T14:30:08.014Z,23.64
2018-05-26T14:31:35.442Z,23.57
2018-05-26T14:33:02.889Z,23.51
2018-05-26T14:34:30.610Z,23.43
2018-05-26T14:35:58.073Z,23.38
2018-05-26T14:37:25.717Z,23.37
2018-05-26T14:38:52.779Z,23.33
2018-05-26T14:40:21.045Z,23.29
2018-05-26T14:41:47.595Z,23.28
2018-05-26T14:43:15.154Z,23.28
2018-05-26T14:44:43.812Z,23.28
2018-05-26T14:46:10.498Z,23.30
2018-05-26T14:47:38.045Z,23.34
2018-05-26T14:49:05.672Z,23.39
2018-05-26T14:50:33.093Z,23.46
2018-05-26T14:52:00.202Z,23.56
2018-05-26T14:53:27.463Z,23.65
2018-05-26T14:54:55.186Z,23.48
2018-05-26T14:56:23.442Z,23.34
2018-05-26T14:57:50.967Z,22.91
2018-05-26T14:59:17.480Z,22.44
2018-05-26T15:00:46.067Z,22.16
2018-05-26T15:02:12.501Z,21.91
2018-05-26T15:03:40.940Z,21.78
2018-05-26T15:05:06.382Z,21.67
2018-05-26T15:06:33.990Z,21.62
2018-05-26T15:08:02.509Z,21.52
2018-05-26T15:09:29.021Z,21.50
2018-05-26T15:10:56.367Z,21.50
2018-05-26T15:12:23.777Z,21.53
2018-05-26T15:13:51.448Z,21.55
2018-05-26T15:15:20.021Z,21.55
2018-05-26T15:16:47.518Z,21.57
2018-05-26T15:18:14.400Z,21.63
2018-05-26T15:19:40.976Z,21.68
2018-05-26T15:21:07.964Z,21.75
2018-05-26T15:22:36.534Z,21.82
2018-05-26T15:24:02.490Z,21.86
2018-05-26T15:25:30.072Z,21.89
2018-05-26T15:26:57.717Z,21.89
2018-05-26T15:28:26.139Z,21.85
2018-05-26T15:29:53.543Z,21.83
2018-05-26T15:31:20.001Z,21.81
2018-05-26T15:32:47.480Z,21.82
2018-05-26T15:34:14.873Z,21.84
2018-05-26T15:35:42.463Z,21.85
2018-05-26T15:37:10.053Z,21.82
2018-05-26T15:38:37.457Z,21.84
2018-05-26T15:40:05.043Z,21.85
2018-05-26T15:41:32.615Z,21.81
2018-05-26T15:42:59.496Z,21.80
2018-05-26T15:44:26.737Z,21.82
2018-05-26T15:45:55.299Z,21.83
2018-05-26T15:47:22.823Z,21.87
2018-05-26T15:48:49.320Z,21.92
2018-05-26T15:50:17.932Z,21.98
2018-05-26T15:51:43.725Z,22.04
2018-05-26T15:53:12.266Z,22.10
2018-05-26T15:54:38.563Z,22.13
2018-05-26T15:56:06.230Z,22.18
2018-05-26T15:57:34.045Z,22.22
2018-05-26T15:59:01.579Z,22.24
2018-05-26T16:00:29.180Z,22.23
2018-05-26T16:01:56.775Z,22.20
2018-05-26T16:03:24.253Z,22.19
2018-05-26T16:04:51.117Z,22.18
2018-05-26T16:06:19.715Z,22.12
2018-05-26T16:07:46.181Z,22.05
2018-05-26T16:09:14.858Z,22.01
2018-05-26T16:10:41.239Z,21.99
2018-05-26T16:12:08.953Z,21.97
2018-05-26T16:13:37.544Z,21.93
2018-05-26T16:15:03.951Z,21.91
2018-05-26T16:16:31.453Z,21.87
2018-05-26T16:17:59.784Z,21.85
2018-05-26T16:19:26.144Z,21.82
2018-05-26T16:20:53.736Z,21.76
2018-05-26T16:22:21.971Z,21.72
2018-05-26T16:23:48.526Z,21.70
2018-05-26T16:25:16.026Z,21.65
2018-05-26T16:26:44.503Z,21.64
2018-05-26T16:28:10.852Z,21.61
2018-05-26T16:29:38.224Z,21.60
2018-05-26T16:31:06.774Z,21.57
2018-05-26T16:32:33.308Z,21.53
2018-05-26T16:34:00.795Z,21.50
2018-05-26T16:35:28.296Z,21.45
2018-05-26T16:36:55.935Z,21.43
2018-05-26T16:38:23.320Z,21.38
2018-05-26T16:39:51.970Z,21.36
2018-05-26T16:41:19.491Z,21.34
2018-05-26T16:42:46.743Z,21.32
2018-05-26T16:44:13.338Z,21.30
2018-05-26T16:45:40.816Z,21.28
2018-05-26T16:47:08.316Z,21.25
2018-05-26T16:48:37.138Z,21.21
2018-05-26T16:50:04.410Z,21.17
2018-05-26T16:51:30.901Z,21.13
2018-05-26T16:52:58.090Z,21.08
2018-05-26T16:54:25.625Z,21.05
2018-05-26T16:55:53.725Z,21.01
2018-05-26T16:57:20.289Z,20.96
2018-05-26T16:58:47.882Z,20.91
2018-05-26T17:00:15.480Z,20.86
2018-05-26T17:01:42.996Z,20.83
2018-05-26T17:03:10.540Z,20.80
2018-05-26T17:04:39.234Z,20.78
2018-05-26T17:06:06.607Z,20.75
2018-05-26T17:07:33.097Z,20.71
2018-05-26T17:09:00.611Z,20.68
2018-05-26T17:10:29.036Z,20.65
2018-05-26T17:11:55.258Z,20.63
2018-05-26T17:13:23.938Z,20.60
2018-05-26T17:14:50.043Z,20.55
2018-05-26T17:16:17.638Z,20.50
2018-05-26T17:17:44.793Z,20.46
2018-05-26T17:19:13.219Z,20.41
2018-05-26T17:20:39.628Z,20.37
2018-05-26T17:22:07.942Z,20.33
2018-05-26T17:23:34.580Z,20.30
2018-05-26T17:25:01.847Z,20.28
2018-05-26T17:26:30.308Z,20.26
2018-05-26T17:27:56.622Z,20.24
2018-05-26T17:29:25.073Z,20.20
2018-05-26T17:30:52.613Z,20.17
2018-05-26T17:32:20.081Z,20.12
2018-05-26T17:33:46.840Z,20.10
2018-05-26T17:35:15.215Z,20.05
2018-05-26T17:36:41.684Z,20.02
2018-05-26T17:38:10.028Z,20.00
2018-05-26T17:39:36.539Z,19.97
2018-05-26T17:41:05.076Z,19.95
2018-05-26T17:42:32.501Z,19.92
2018-05-26T17:43:59.014Z,19.91
2018-05-26T17:45:27.293Z,19.91
2018-05-26T17:46:53.846Z,19.92
2018-05-26T17:48:21.132Z,19.90
2018-05-26T17:49:48.902Z,19.86
2018-05-26T17:51:17.436Z,19.83
2018-05-26T17:52:43.851Z,19.80
2018-05-26T17:54:11.296Z,19.79
2018-05-26T17:55:38.873Z,19.78
2018-05-26T17:57:06.379Z,19.76
2018-05-26T17:58:33.835Z,19.75
2018-05-26T18:00:01.449Z,19.73
2018-05-26T18:01:28.778Z,19.72
2018-05-26T18:02:56.240Z,19.71
2018-05-26T18:04:23.677Z,19.70
2018-05-26T18:05:51.259Z,19.70
2018-05-26T18:07:19.147Z,19.70
2018-05-26T18:08:47.738Z,19.71
2018-05-26T18:10:15.288Z,19.71
2018-05-26T18:11:41.692Z,19.71
2018-05-26T18:13:08.936Z,19.71
2018-05-26T18:14:36.203Z,19.70
2018-05-26T18:16:03.672Z,19.69
2018-05-26T18:17:32.084Z,19.68
2018-05-26T18:18:58.472Z,19.68
2018-05-26T18:20:26.917Z,19.66
2018-05-26T18:21:53.324Z,19.65
2018-05-26T18:23:20.675Z,19.64
2018-05-26T18:24:49.199Z,19.63
2018-05-26T18:26:15.536Z,19.63
2018-05-26T18:27:43.097Z,19.62
2018-05-26T18:29:10.337Z,19.62
2018-05-26T18:30:38.908Z,19.63
2018-05-26T18:32:05.315Z,19.62
2018-05-26T18:33:33.868Z,19.62
2018-05-26T18:35:00.336Z,19.63
2018-05-26T18:36:28.768Z,19.63
2018-05-26T18:37:55.063Z,19.63
2018-05-26T18:39:22.449Z,19.61
2018-05-26T18:40:50.916Z,19.58
2018-05-26T18:42:17.379Z,19.56
2018-05-26T18:43:45.916Z,19.53
2018-05-26T18:45:13.440Z,19.52